NO-0016 weather

Public forecast

Using degrees Celsius for public forecast. Weather courtesy of forecast.io.

Closest aviation weather report (METAR) to Fiske Airfield

Closest report is Kristiansund Airport (Kvernberget), 33.8 nm (62.5 km) W. Retrieved 2020/08/09 08:50 UTC (18 minutes ago):

ENKB 090850Z AUTO 25006KT 210V280 9999 FEW024/// SCT037/// OVC055/// 14/09 Q1027 RMK WIND 745FT 27008KT

Closest aviation forecast (TAF) to Fiske Airfield

Closest forecast is Ørland Airport, 43.9 nm (81.2 km) NNE. Retrieved 2020/08/09 06:57 UTC (2 hours ago):

TAF ENOL 090500Z 0906/1006 20007KT 9999 SCT020 TEMPO 0906/0909 BKN012